sensor_id;sensor_type;location;lat;lon;timestamp;P1;durP1;ratioP1;P2;durP2;ratioP2
5412;SDS011;2729;50.056;8.678;2023-08-01T00:01:35;5.43;;;2.87;;
5412;SDS011;2729;50.056;8.678;2023-08-01T00:04:00;10.80;;;2.70;;
5412;SDS011;2729;50.056;8.678;2023-08-01T00:06:26;7.40;;;2.77;;
5412;SDS011;2729;50.056;8.678;2023-08-01T00:08:52;4.30;;;3.10;;
5412;SDS011;2729;50.056;8.678;2023-08-01T00:11:20;3.50;;;3.20;;
5412;SDS011;2729;50.056;8.678;2023-08-01T00:13:45;4.23;;;3.13;;
5412;SDS011;2729;50.056;8.678;2023-08-01T00:16:11;4.47;;;3.17;;
5412;SDS011;2729;50.056;8.678;2023-08-01T00:18:37;3.53;;;2.93;;
5412;SDS011;2729;50.056;8.678;2023-08-01T00:21:02;3.37;;;3.07;;
5412;SDS011;2729;50.056;8.678;2023-08-01T00:23:30;5.33;;;3.00;;
5412;SDS011;2729;50.056;8.678;2023-08-01T00:25:56;4.53;;;3.23;;
5412;SDS011;2729;50.056;8.678;2023-08-01T00:28:22;4.87;;;3.00;;
5412;SDS011;2729;50.056;8.678;2023-08-01T00:30:49;3.70;;;2.60;;
5412;SDS011;2729;50.056;8.678;2023-08-01T00:33:14;3.10;;;2.70;;
5412;SDS011;2729;50.056;8.678;2023-08-01T00:35:40;7.83;;;3.47;;
5412;SDS011;2729;50.056;8.678;2023-08-01T00:38:06;5.93;;;3.33;;
5412;SDS011;2729;50.056;8.678;2023-08-01T00:40:32;5.50;;;2.67;;
5412;SDS011;2729;50.056;8.678;2023-08-01T00:42:57;4.57;;;3.20;;
5412;SDS011;2729;50.056;8.678;2023-08-01T00:45:24;4.53;;;2.87;;
5412;SDS011;2729;50.056;8.678;2023-08-01T00:47:51;4.80;;;2.90;;
5412;SDS011;2729;50.056;8.678;2023-08-01T00:50:16;5.20;;;2.93;;
5412;SDS011;2729;50.056;8.678;2023-08-01T00:52:49;3.27;;;2.93;;
5412;SDS011;2729;50.056;8.678;2023-08-01T00:55:15;5.27;;;3.43;;
5412;SDS011;2729;50.056;8.678;2023-08-01T00:57:41;6.50;;;3.37;;
5412;SDS011;2729;50.056;8.678;2023-08-01T01:00:08;2.90;;;2.70;;
5412;SDS011;2729;50.056;8.678;2023-08-01T01:02:34;3.10;;;2.43;;
5412;SDS011;2729;50.056;8.678;2023-08-01T01:05:00;7.60;;;2.73;;
5412;SDS011;2729;50.056;8.678;2023-08-01T01:07:26;2.80;;;2.60;;
5412;SDS011;2729;50.056;8.678;2023-08-01T01:09:53;4.50;;;2.97;;
5412;SDS011;2729;50.056;8.678;2023-08-01T01:12:18;2.63;;;2.43;;
5412;SDS011;2729;50.056;8.678;2023-08-01T01:14:45;3.30;;;2.70;;
5412;SDS011;2729;50.056;8.678;2023-08-01T01:17:11;10.30;;;2.70;;
5412;SDS011;2729;50.056;8.678;2023-08-01T01:19:38;5.03;;;2.90;;
5412;SDS011;2729;50.056;8.678;2023-08-01T01:22:03;5.33;;;2.97;;
5412;SDS011;2729;50.056;8.678;2023-08-01T01:24:30;4.97;;;2.77;;
5412;SDS011;2729;50.056;8.678;2023-08-01T01:26:56;6.50;;;2.60;;
5412;SDS011;2729;50.056;8.678;2023-08-01T01:29:26;3.03;;;2.70;;
5412;SDS011;2729;50.056;8.678;2023-08-01T01:31:52;4.57;;;3.00;;
5412;SDS011;2729;50.056;8.678;2023-08-01T01:34:18;2.90;;;2.70;;
5412;SDS011;2729;50.056;8.678;2023-08-01T01:36:43;4.50;;;3.33;;
5412;SDS011;2729;50.056;8.678;2023-08-01T01:39:09;7.07;;;2.80;;
5412;SDS011;2729;50.056;8.678;2023-08-01T01:41:35;4.70;;;3.00;;
5412;SDS011;2729;50.056;8.678;2023-08-01T01:44:00;4.63;;;2.80;;
5412;SDS011;2729;50.056;8.678;2023-08-01T01:46:26;4.17;;;2.70;;
5412;SDS011;2729;50.056;8.678;2023-08-01T01:48:52;5.60;;;3.13;;
5412;SDS011;2729;50.056;8.678;2023-08-01T01:51:19;5.23;;;3.50;;
5412;SDS011;2729;50.056;8.678;2023-08-01T01:53:44;4.93;;;3.23;;
5412;SDS011;2729;50.056;8.678;2023-08-01T01:56:10;6.03;;;2.93;;
5412;SDS011;2729;50.056;8.678;2023-08-01T01:58:35;3.77;;;3.10;;
5412;SDS011;2729;50.056;8.678;2023-08-01T02:01:01;5.27;;;3.23;;
5412;SDS011;2729;50.056;8.678;2023-08-01T02:03:27;5.00;;;3.27;;
5412;SDS011;2729;50.056;8.678;2023-08-01T02:05:52;10.80;;;3.17;;
5412;SDS011;2729;50.056;8.678;2023-08-01T02:08:18;3.33;;;2.70;;
5412;SDS011;2729;50.056;8.678;2023-08-01T02:10:44;5.30;;;3.07;;
5412;SDS011;2729;50.056;8.678;2023-08-01T02:13:09;4.70;;;3.00;;
5412;SDS011;2729;50.056;8.678;2023-08-01T02:15:35;5.50;;;3.23;;
5412;SDS011;2729;50.056;8.678;2023-08-01T02:18:02;9.53;;;3.40;;
5412;SDS011;2729;50.056;8.678;2023-08-01T02:20:28;5.37;;;2.80;;
5412;SDS011;2729;50.056;8.678;2023-08-01T02:22:54;6.30;;;3.27;;
5412;SDS011;2729;50.056;8.678;2023-08-01T02:25:20;2.73;;;2.53;;
5412;SDS011;2729;50.056;8.678;2023-08-01T02:27:45;4.57;;;2.77;;
5412;SDS011;2729;50.056;8.678;2023-08-01T02:30:11;6.90;;;2.67;;
5412;SDS011;2729;50.056;8.678;2023-08-01T02:32:37;3.50;;;2.57;;
5412;SDS011;2729;50.056;8.678;2023-08-01T02:35:02;3.10;;;2.80;;
5412;SDS011;2729;50.056;8.678;2023-08-01T02:37:29;5.80;;;3.13;;
5412;SDS011;2729;50.056;8.678;2023-08-01T02:39:54;4.90;;;2.90;;
5412;SDS011;2729;50.056;8.678;2023-08-01T02:42:20;3.03;;;2.40;;
5412;SDS011;2729;50.056;8.678;2023-08-01T02:44:45;4.57;;;2.87;;
5412;SDS011;2729;50.056;8.678;2023-08-01T02:47:11;5.50;;;3.10;;
5412;SDS011;2729;50.056;8.678;2023-08-01T02:49:40;2.67;;;2.40;;
5412;SDS011;2729;50.056;8.678;2023-08-01T02:52:05;5.33;;;2.60;;
5412;SDS011;2729;50.056;8.678;2023-08-01T02:54:31;5.10;;;2.70;;
5412;SDS011;2729;50.056;8.678;2023-08-01T02:56:56;4.57;;;2.67;;
5412;SDS011;2729;50.056;8.678;2023-08-01T02:59:22;3.47;;;3.00;;
5412;SDS011;2729;50.056;8.678;2023-08-01T03:01:48;3.63;;;2.60;;
5412;SDS011;2729;50.056;8.678;2023-08-01T03:04:13;3.90;;;2.80;;
5412;SDS011;2729;50.056;8.678;2023-08-01T03:06:40;2.83;;;2.07;;
5412;SDS011;2729;50.056;8.678;2023-08-01T03:09:05;3.67;;;2.60;;
5412;SDS011;2729;50.056;8.678;2023-08-01T03:11:36;4.60;;;2.30;;
5412;SDS011;2729;50.056;8.678;2023-08-01T03:14:02;5.90;;;2.57;;
5412;SDS011;2729;50.056;8.678;2023-08-01T03:16:30;2.33;;;1.90;;
5412;SDS011;2729;50.056;8.678;2023-08-01T03:18:56;4.73;;;2.93;;
5412;SDS011;2729;50.056;8.678;2023-08-01T03:21:21;3.60;;;2.60;;
5412;SDS011;2729;50.056;8.678;2023-08-01T03:23:47;2.90;;;2.30;;
5412;SDS011;2729;50.056;8.678;2023-08-01T03:26:13;3.73;;;2.93;;
5412;SDS011;2729;50.056;8.678;2023-08-01T03:28:38;2.60;;;2.37;;
5412;SDS011;2729;50.056;8.678;2023-08-01T03:31:05;3.77;;;2.43;;
5412;SDS011;2729;50.056;8.678;2023-08-01T03:33:32;5.50;;;2.17;;
5412;SDS011;2729;50.056;8.678;2023-08-01T03:35:57;2.90;;;2.63;;
5412;SDS011;2729;50.056;8.678;2023-08-01T03:38:23;4.43;;;3.10;;
5412;SDS011;2729;50.056;8.678;2023-08-01T03:40:49;3.97;;;2.60;;
5412;SDS011;2729;50.056;8.678;2023-08-01T03:43:14;7.23;;;2.47;;
5412;SDS011;2729;50.056;8.678;2023-08-01T03:45:40;4.83;;;2.43;;
5412;SDS011;2729;50.056;8.678;2023-08-01T03:48:05;4.10;;;2.33;;
5412;SDS011;2729;50.056;8.678;2023-08-01T03:50:31;3.13;;;2.60;;
5412;SDS011;2729;50.056;8.678;2023-08-01T03:52:57;7.50;;;2.63;;
5412;SDS011;2729;50.056;8.678;2023-08-01T03:55:22;2.40;;;2.20;;
5412;SDS011;2729;50.056;8.678;2023-08-01T03:57:48;2.77;;;2.53;;
5412;SDS011;2729;50.056;8.678;2023-08-01T04:00:13;7.00;;;2.20;;
5412;SDS011;2729;50.056;8.678;2023-08-01T04:02:42;3.90;;;2.57;;
5412;SDS011;2729;50.056;8.678;2023-08-01T04:05:09;4.20;;;2.17;;
5412;SDS011;2729;50.056;8.678;2023-08-01T04:07:35;7.07;;;2.60;;
5412;SDS011;2729;50.056;8.678;2023-08-01T04:10:01;2.90;;;2.47;;
5412;SDS011;2729;50.056;8.678;2023-08-01T04:12:27;3.13;;;2.83;;
5412;SDS011;2729;50.056;8.678;2023-08-01T04:14:52;2.87;;;2.40;;
5412;SDS011;2729;50.056;8.678;2023-08-01T04:17:18;3.30;;;2.40;;
5412;SDS011;2729;50.056;8.678;2023-08-01T04:19:43;6.80;;;2.87;;
5412;SDS011;2729;50.056;8.678;2023-08-01T04:22:09;6.53;;;2.87;;
5412;SDS011;2729;50.056;8.678;2023-08-01T04:24:35;3.37;;;2.90;;
5412;SDS011;2729;50.056;8.678;2023-08-01T04:27:00;3.27;;;2.97;;
5412;SDS011;2729;50.056;8.678;2023-08-01T04:29:26;3.90;;;2.87;;
5412;SDS011;2729;50.056;8.678;2023-08-01T04:31:51;3.37;;;2.70;;
5412;SDS011;2729;50.056;8.678;2023-08-01T04:34:17;3.80;;;2.90;;
5412;SDS011;2729;50.056;8.678;2023-08-01T04:36:43;3.23;;;2.47;;
5412;SDS011;2729;50.056;8.678;2023-08-01T04:39:08;6.23;;;2.70;;
5412;SDS011;2729;50.056;8.678;2023-08-01T04:41:34;5.00;;;2.77;;
5412;SDS011;2729;50.056;8.678;2023-08-01T04:43:59;4.73;;;2.77;;
5412;SDS011;2729;50.056;8.678;2023-08-01T04:46:25;5.10;;;2.70;;
5412;SDS011;2729;50.056;8.678;2023-08-01T04:48:50;2.73;;;2.47;;
5412;SDS011;2729;50.056;8.678;2023-08-01T04:51:16;4.93;;;2.90;;
5412;SDS011;2729;50.056;8.678;2023-08-01T04:53:42;3.40;;;2.33;;
5412;SDS011;2729;50.056;8.678;2023-08-01T04:56:07;5.07;;;2.43;;
5412;SDS011;2729;50.056;8.678;2023-08-01T04:58:33;2.67;;;2.17;;
5412;SDS011;2729;50.056;8.678;2023-08-01T05:00:58;3.70;;;2.63;;
5412;SDS011;2729;50.056;8.678;2023-08-01T05:03:24;2.33;;;2.13;;
5412;SDS011;2729;50.056;8.678;2023-08-01T05:05:50;3.57;;;2.40;;
5412;SDS011;2729;50.056;8.678;2023-08-01T05:08:15;4.20;;;2.40;;
5412;SDS011;2729;50.056;8.678;2023-08-01T05:10:41;2.50;;;2.30;;
5412;SDS011;2729;50.056;8.678;2023-08-01T05:13:06;3.17;;;2.20;;
5412;SDS011;2729;50.056;8.678;2023-08-01T05:15:32;5.70;;;2.40;;
5412;SDS011;2729;50.056;8.678;2023-08-01T05:17:58;2.33;;;2.20;;
5412;SDS011;2729;50.056;8.678;2023-08-01T05:20:23;2.63;;;2.43;;
5412;SDS011;2729;50.056;8.678;2023-08-01T05:22:51;6.57;;;3.00;;
5412;SDS011;2729;50.056;8.678;2023-08-01T05:25:16;6.73;;;2.53;;
5412;SDS011;2729;50.056;8.678;2023-08-01T05:27:42;2.70;;;2.07;;
5412;SDS011;2729;50.056;8.678;2023-08-01T05:30:10;2.53;;;2.17;;
5412;SDS011;2729;50.056;8.678;2023-08-01T05:32:35;5.70;;;2.67;;
5412;SDS011;2729;50.056;8.678;2023-08-01T05:35:02;2.40;;;2.20;;
5412;SDS011;2729;50.056;8.678;2023-08-01T05:37:28;2.43;;;2.30;;
5412;SDS011;2729;50.056;8.678;2023-08-01T05:39:54;2.00;;;1.80;;
5412;SDS011;2729;50.056;8.678;2023-08-01T05:42:19;2.43;;;2.13;;
5412;SDS011;2729;50.056;8.678;2023-08-01T05:44:45;2.20;;;2.00;;
5412;SDS011;2729;50.056;8.678;2023-08-01T05:47:11;8.10;;;2.23;;
5412;SDS011;2729;50.056;8.678;2023-08-01T05:49:36;1.63;;;1.53;;
5412;SDS011;2729;50.056;8.678;2023-08-01T05:52:02;5.57;;;2.40;;
5412;SDS011;2729;50.056;8.678;2023-08-01T05:54:28;4.30;;;2.70;;
5412;SDS011;2729;50.056;8.678;2023-08-01T05:56:53;4.07;;;2.53;;
5412;SDS011;2729;50.056;8.678;2023-08-01T05:59:19;2.43;;;2.23;;
5412;SDS011;2729;50.056;8.678;2023-08-01T06:01:45;4.60;;;2.47;;
5412;SDS011;2729;50.056;8.678;2023-08-01T06:04:10;3.50;;;2.60;;
5412;SDS011;2729;50.056;8.678;2023-08-01T06:06:36;2.60;;;2.10;;
5412;SDS011;2729;50.056;8.678;2023-08-01T06:09:02;5.90;;;2.53;;
5412;SDS011;2729;50.056;8.678;2023-08-01T06:11:28;5.50;;;3.00;;
5412;SDS011;2729;50.056;8.678;2023-08-01T06:20:12;2.60;;;2.40;;
5412;SDS011;2729;50.056;8.678;2023-08-01T06:22:38;3.13;;;2.83;;
5412;SDS011;2729;50.056;8.678;2023-08-01T06:25:04;3.50;;;2.60;;
5412;SDS011;2729;50.056;8.678;2023-08-01T06:27:30;5.63;;;3.03;;
5412;SDS011;2729;50.056;8.678;2023-08-01T06:29:56;3.53;;;2.87;;
5412;SDS011;2729;50.056;8.678;2023-08-01T06:32:24;7.60;;;3.30;;
5412;SDS011;2729;50.056;8.678;2023-08-01T06:34:50;6.93;;;2.53;;
5412;SDS011;2729;50.056;8.678;2023-08-01T06:37:15;3.33;;;2.70;;
5412;SDS011;2729;50.056;8.678;2023-08-01T06:39:41;5.87;;;2.57;;
5412;SDS011;2729;50.056;8.678;2023-08-01T06:42:06;4.30;;;3.20;;
5412;SDS011;2729;50.056;8.678;2023-08-01T06:44:33;3.97;;;3.43;;
5412;SDS011;2729;50.056;8.678;2023-08-01T06:46:59;4.80;;;2.80;;
5412;SDS011;2729;50.056;8.678;2023-08-01T06:49:25;4.03;;;3.30;;
5412;SDS011;2729;50.056;8.678;2023-08-01T06:51:50;8.20;;;2.10;;
5412;SDS011;2729;50.056;8.678;2023-08-01T06:54:16;3.50;;;1.97;;
5412;SDS011;2729;50.056;8.678;2023-08-01T06:56:41;1.73;;;1.40;;
5412;SDS011;2729;50.056;8.678;2023-08-01T06:59:13;1.63;;;1.20;;
5412;SDS011;2729;50.056;8.678;2023-08-01T07:01:39;1.80;;;1.00;;
5412;SDS011;2729;50.056;8.678;2023-08-01T07:04:06;1.90;;;1.13;;
5412;SDS011;2729;50.056;8.678;2023-08-01T07:06:31;1.30;;;1.20;;
5412;SDS011;2729;50.056;8.678;2023-08-01T07:08:57;0.90;;;0.90;;
5412;SDS011;2729;50.056;8.678;2023-08-01T07:11:23;1.47;;;1.17;;
5412;SDS011;2729;50.056;8.678;2023-08-01T07:13:49;0.93;;;0.90;;
5412;SDS011;2729;50.056;8.678;2023-08-01T07:16:15;1.17;;;1.17;;
5412;SDS011;2729;50.056;8.678;2023-08-01T07:18:40;1.10;;;1.10;;
5412;SDS011;2729;50.056;8.678;2023-08-01T07:21:06;1.43;;;1.30;;
5412;SDS011;2729;50.056;8.678;2023-08-01T07:23:33;1.33;;;1.23;;
5412;SDS011;2729;50.056;8.678;2023-08-01T07:25:58;1.40;;;1.27;;
5412;SDS011;2729;50.056;8.678;2023-08-01T07:28:24;1.13;;;1.13;;
5412;SDS011;2729;50.056;8.678;2023-08-01T07:30:57;0.90;;;0.90;;
5412;SDS011;2729;50.056;8.678;2023-08-01T07:33:25;1.63;;;1.20;;
5412;SDS011;2729;50.056;8.678;2023-08-01T07:35:51;1.00;;;1.00;;
5412;SDS011;2729;50.056;8.678;2023-08-01T07:38:17;1.20;;;1.10;;
5412;SDS011;2729;50.056;8.678;2023-08-01T07:40:42;5.03;;;1.23;;
5412;SDS011;2729;50.056;8.678;2023-08-01T07:43:09;2.97;;;1.30;;
5412;SDS011;2729;50.056;8.678;2023-08-01T07:45:36;2.17;;;1.20;;
5412;SDS011;2729;50.056;8.678;2023-08-01T07:48:01;1.10;;;1.10;;
5412;SDS011;2729;50.056;8.678;2023-08-01T07:50:27;1.30;;;1.13;;
5412;SDS011;2729;50.056;8.678;2023-08-01T07:52:52;3.30;;;1.10;;
5412;SDS011;2729;50.056;8.678;2023-08-01T07:55:18;1.40;;;1.30;;
5412;SDS011;2729;50.056;8.678;2023-08-01T07:57:44;1.30;;;1.20;;
5412;SDS011;2729;50.056;8.678;2023-08-01T08:00:10;0.90;;;0.90;;
5412;SDS011;2729;50.056;8.678;2023-08-01T08:02:42;1.00;;;1.00;;
5412;SDS011;2729;50.056;8.678;2023-08-01T08:05:08;0.90;;;0.90;;
5412;SDS011;2729;50.056;8.678;2023-08-01T08:07:34;0.90;;;0.90;;
5412;SDS011;2729;50.056;8.678;2023-08-01T08:10:00;1.27;;;0.90;;
5412;SDS011;2729;50.056;8.678;2023-08-01T08:12:25;1.40;;;1.30;;
5412;SDS011;2729;50.056;8.678;2023-08-01T08:14:52;1.10;;;1.03;;
5412;SDS011;2729;50.056;8.678;2023-08-01T08:17:18;1.77;;;1.10;;
5412;SDS011;2729;50.056;8.678;2023-08-01T08:19:43;1.40;;;1.30;;
5412;SDS011;2729;50.056;8.678;2023-08-01T08:22:12;4.03;;;1.80;;
5412;SDS011;2729;50.056;8.678;2023-08-01T08:24:37;2.40;;;1.23;;
5412;SDS011;2729;50.056;8.678;2023-08-01T08:27:03;1.57;;;1.20;;
5412;SDS011;2729;50.056;8.678;2023-08-01T08:29:29;1.43;;;1.20;;
5412;SDS011;2729;50.056;8.678;2023-08-01T08:31:55;1.20;;;1.20;;
5412;SDS011;2729;50.056;8.678;2023-08-01T08:34:21;1.00;;;1.00;;
5412;SDS011;2729;50.056;8.678;2023-08-01T08:36:46;2.90;;;1.40;;
5412;SDS011;2729;50.056;8.678;2023-08-01T08:39:12;1.90;;;1.17;;
5412;SDS011;2729;50.056;8.678;2023-08-01T08:41:39;0.90;;;0.90;;
5412;SDS011;2729;50.056;8.678;2023-08-01T08:44:08;1.23;;;1.23;;
5412;SDS011;2729;50.056;8.678;2023-08-01T08:46:37;1.10;;;1.00;;
5412;SDS011;2729;50.056;8.678;2023-08-01T08:49:06;1.10;;;1.00;;
5412;SDS011;2729;50.056;8.678;2023-08-01T08:51:32;1.53;;;1.43;;
5412;SDS011;2729;50.056;8.678;2023-08-01T08:53:57;1.73;;;1.20;;
5412;SDS011;2729;50.056;8.678;2023-08-01T08:56:23;2.23;;;1.50;;
5412;SDS011;2729;50.056;8.678;2023-08-01T08:58:49;1.20;;;1.10;;
5412;SDS011;2729;50.056;8.678;2023-08-01T09:01:15;2.30;;;1.27;;
5412;SDS011;2729;50.056;8.678;2023-08-01T09:03:42;1.63;;;1.53;;
5412;SDS011;2729;50.056;8.678;2023-08-01T09:06:17;1.20;;;1.20;;
5412;SDS011;2729;50.056;8.678;2023-08-01T09:11:27;4.90;;;0.93;;
5412;SDS011;2729;50.056;8.678;2023-08-01T09:13:52;0.90;;;0.90;;
5412;SDS011;2729;50.056;8.678;2023-08-01T09:16:18;1.20;;;1.20;;
5412;SDS011;2729;50.056;8.678;2023-08-01T09:18:48;1.13;;;0.97;;
5412;SDS011;2729;50.056;8.678;2023-08-01T09:21:14;1.37;;;1.27;;
5412;SDS011;2729;50.056;8.678;2023-08-01T09:23:40;1.90;;;1.13;;
5412;SDS011;2729;50.056;8.678;2023-08-01T09:26:15;2.40;;;1.20;;
5412;SDS011;2729;50.056;8.678;2023-08-01T09:28:41;1.43;;;1.33;;
5412;SDS011;2729;50.056;8.678;2023-08-01T09:31:07;1.33;;;1.23;;
5412;SDS011;2729;50.056;8.678;2023-08-01T09:33:42;1.50;;;1.27;;
5412;SDS011;2729;50.056;8.678;2023-08-01T09:36:08;1.30;;;1.30;;
5412;SDS011;2729;50.056;8.678;2023-08-01T09:38:34;1.33;;;1.17;;
5412;SDS011;2729;50.056;8.678;2023-08-01T09:41:00;1.90;;;1.50;;
5412;SDS011;2729;50.056;8.678;2023-08-01T09:43:26;2.80;;;1.30;;
5412;SDS011;2729;50.056;8.678;2023-08-01T09:45:58;3.87;;;1.30;;
5412;SDS011;2729;50.056;8.678;2023-08-01T09:48:25;1.17;;;1.17;;
5412;SDS011;2729;50.056;8.678;2023-08-01T09:50:51;1.20;;;1.20;;
5412;SDS011;2729;50.056;8.678;2023-08-01T09:53:16;2.03;;;1.30;;
5412;SDS011;2729;50.056;8.678;2023-08-01T09:55:42;1.23;;;1.03;;
5412;SDS011;2729;50.056;8.678;2023-08-01T09:58:09;1.47;;;1.10;;
5412;SDS011;2729;50.056;8.678;2023-08-01T10:00:37;0.97;;;0.97;;
5412;SDS011;2729;50.056;8.678;2023-08-01T10:03:02;1.13;;;1.03;;
5412;SDS011;2729;50.056;8.678;2023-08-01T10:05:29;3.03;;;1.13;;
5412;SDS011;2729;50.056;8.678;2023-08-01T10:10:59;2.30;;;1.33;;
5412;SDS011;2729;50.056;8.678;2023-08-01T10:13:25;1.30;;;1.20;;
5412;SDS011;2729;50.056;8.678;2023-08-01T10:15:52;1.23;;;1.23;;
5412;SDS011;2729;50.056;8.678;2023-08-01T10:18:18;1.97;;;1.30;;
5412;SDS011;2729;50.056;8.678;2023-08-01T10:20:44;1.10;;;1.10;;
5412;SDS011;2729;50.056;8.678;2023-08-01T10:23:09;1.23;;;1.23;;
5412;SDS011;2729;50.056;8.678;2023-08-01T10:25:36;1.90;;;1.63;;
5412;SDS011;2729;50.056;8.678;2023-08-01T10:28:03;1.30;;;1.20;;
5412;SDS011;2729;50.056;8.678;2023-08-01T10:30:29;2.30;;;1.10;;
5412;SDS011;2729;50.056;8.678;2023-08-01T10:32:56;1.13;;;1.13;;
5412;SDS011;2729;50.056;8.678;2023-08-01T10:38:03;1.60;;;1.50;;
5412;SDS011;2729;50.056;8.678;2023-08-01T10:40:48;2.90;;;1.20;;
5412;SDS011;2729;50.056;8.678;2023-08-01T10:43:23;1.53;;;1.43;;
5412;SDS011;2729;50.056;8.678;2023-08-01T10:45:48;1.40;;;1.03;;
5412;SDS011;2729;50.056;8.678;2023-08-01T10:48:25;1.20;;;1.20;;
5412;SDS011;2729;50.056;8.678;2023-08-01T10:50:54;1.43;;;1.33;;
5412;SDS011;2729;50.056;8.678;2023-08-01T10:53:20;1.30;;;1.30;;
5412;SDS011;2729;50.056;8.678;2023-08-01T10:55:45;1.67;;;1.57;;
5412;SDS011;2729;50.056;8.678;2023-08-01T10:58:12;3.50;;;1.27;;
5412;SDS011;2729;50.056;8.678;2023-08-01T11:00:38;3.07;;;1.50;;
5412;SDS011;2729;50.056;8.678;2023-08-01T11:03:04;2.80;;;1.70;;
5412;SDS011;2729;50.056;8.678;2023-08-01T11:05:29;2.87;;;1.90;;
5412;SDS011;2729;50.056;8.678;2023-08-01T11:07:55;1.13;;;1.03;;
5412;SDS011;2729;50.056;8.678;2023-08-01T11:10:21;2.63;;;1.30;;
5412;SDS011;2729;50.056;8.678;2023-08-01T11:12:47;2.80;;;1.43;;
5412;SDS011;2729;50.056;8.678;2023-08-01T11:15:13;1.50;;;1.40;;
5412;SDS011;2729;50.056;8.678;2023-08-01T11:17:39;1.33;;;1.33;;
5412;SDS011;2729;50.056;8.678;2023-08-01T11:20:09;1.40;;;1.30;;
5412;SDS011;2729;50.056;8.678;2023-08-01T11:22:35;1.23;;;1.20;;
5412;SDS011;2729;50.056;8.678;2023-08-01T11:25:01;1.20;;;1.10;;
5412;SDS011;2729;50.056;8.678;2023-08-01T11:27:27;1.77;;;1.50;;
5412;SDS011;2729;50.056;8.678;2023-08-01T11:29:54;2.40;;;1.83;;
5412;SDS011;2729;50.056;8.678;2023-08-01T11:32:19;1.10;;;1.10;;
5412;SDS011;2729;50.056;8.678;2023-08-01T11:34:46;2.37;;;1.33;;
5412;SDS011;2729;50.056;8.678;2023-08-01T11:37:12;1.30;;;1.20;;
5412;SDS011;2729;50.056;8.678;2023-08-01T11:39:38;4.93;;;1.47;;
5412;SDS011;2729;50.056;8.678;2023-08-01T11:42:04;1.10;;;1.10;;
5412;SDS011;2729;50.056;8.678;2023-08-01T11:44:30;5.60;;;1.63;;
5412;SDS011;2729;50.056;8.678;2023-08-01T11:46:56;4.73;;;1.77;;
5412;SDS011;2729;50.056;8.678;2023-08-01T11:49:21;2.40;;;1.50;;
5412;SDS011;2729;50.056;8.678;2023-08-01T11:51:48;1.77;;;1.30;;
5412;SDS011;2729;50.056;8.678;2023-08-01T11:54:14;3.00;;;2.70;;
5412;SDS011;2729;50.056;8.678;2023-08-01T11:56:40;1.43;;;1.27;;
5412;SDS011;2729;50.056;8.678;2023-08-01T11:59:10;1.13;;;1.10;;
5412;SDS011;2729;50.056;8.678;2023-08-01T12:01:39;1.23;;;1.23;;
5412;SDS011;2729;50.056;8.678;2023-08-01T12:04:05;1.40;;;1.30;;
5412;SDS011;2729;50.056;8.678;2023-08-01T12:06:31;1.60;;;1.37;;
5412;SDS011;2729;50.056;8.678;2023-08-01T12:09:07;1.23;;;1.20;;
5412;SDS011;2729;50.056;8.678;2023-08-01T12:11:33;1.93;;;1.20;;
5412;SDS011;2729;50.056;8.678;2023-08-01T12:14:03;1.20;;;1.10;;
5412;SDS011;2729;50.056;8.678;2023-08-01T12:16:29;1.47;;;1.37;;
5412;SDS011;2729;50.056;8.678;2023-08-01T12:18:55;2.80;;;1.40;;
5412;SDS011;2729;50.056;8.678;2023-08-01T12:21:20;1.30;;;1.30;;
5412;SDS011;2729;50.056;8.678;2023-08-01T12:23:46;1.77;;;1.40;;
5412;SDS011;2729;50.056;8.678;2023-08-01T12:26:11;2.63;;;1.37;;
5412;SDS011;2729;50.056;8.678;2023-08-01T12:28:37;1.43;;;1.33;;
5412;SDS011;2729;50.056;8.678;2023-08-01T12:31:03;1.87;;;1.33;;
5412;SDS011;2729;50.056;8.678;2023-08-01T12:33:29;1.10;;;1.10;;
5412;SDS011;2729;50.056;8.678;2023-08-01T12:35:55;1.47;;;1.30;;
5412;SDS011;2729;50.056;8.678;2023-08-01T12:38:21;1.87;;;1.10;;
5412;SDS011;2729;50.056;8.678;2023-08-01T12:40:47;4.13;;;1.50;;
5412;SDS011;2729;50.056;8.678;2023-08-01T12:43:13;1.17;;;1.17;;
5412;SDS011;2729;50.056;8.678;2023-08-01T12:45:40;1.90;;;1.53;;
5412;SDS011;2729;50.056;8.678;2023-08-01T12:48:05;1.33;;;1.23;;
5412;SDS011;2729;50.056;8.678;2023-08-01T12:50:31;1.40;;;1.33;;
5412;SDS011;2729;50.056;8.678;2023-08-01T12:52:56;1.63;;;1.50;;
5412;SDS011;2729;50.056;8.678;2023-08-01T12:55:22;2.97;;;1.73;;
5412;SDS011;2729;50.056;8.678;2023-08-01T12:57:48;2.40;;;1.53;;
5412;SDS011;2729;50.056;8.678;2023-08-01T13:00:14;1.53;;;1.43;;
5412;SDS011;2729;50.056;8.678;2023-08-01T13:02:39;1.67;;;1.57;;
5412;SDS011;2729;50.056;8.678;2023-08-01T13:05:05;1.70;;;1.27;;
5412;SDS011;2729;50.056;8.678;2023-08-01T13:07:31;4.00;;;1.20;;
5412;SDS011;2729;50.056;8.678;2023-08-01T13:10:02;5.47;;;1.40;;
5412;SDS011;2729;50.056;8.678;2023-08-01T13:12:28;3.53;;;1.70;;
5412;SDS011;2729;50.056;8.678;2023-08-01T13:14:53;2.87;;;1.63;;
5412;SDS011;2729;50.056;8.678;2023-08-01T13:17:19;3.60;;;1.60;;
5412;SDS011;2729;50.056;8.678;2023-08-01T13:19:45;1.20;;;1.20;;
5412;SDS011;2729;50.056;8.678;2023-08-01T13:22:11;1.97;;;1.67;;
5412;SDS011;2729;50.056;8.678;2023-08-01T13:24:36;1.30;;;1.20;;
5412;SDS011;2729;50.056;8.678;2023-08-01T13:27:02;2.40;;;1.20;;
5412;SDS011;2729;50.056;8.678;2023-08-01T13:29:28;1.87;;;1.50;;
5412;SDS011;2729;50.056;8.678;2023-08-01T13:31:53;1.40;;;1.30;;
5412;SDS011;2729;50.056;8.678;2023-08-01T13:34:19;1.73;;;1.30;;
5412;SDS011;2729;50.056;8.678;2023-08-01T13:36:44;1.73;;;1.63;;
5412;SDS011;2729;50.056;8.678;2023-08-01T13:39:10;1.73;;;1.63;;
5412;SDS011;2729;50.056;8.678;2023-08-01T13:41:36;2.17;;;1.50;;
5412;SDS011;2729;50.056;8.678;2023-08-01T13:44:01;3.50;;;1.80;;
5412;SDS011;2729;50.056;8.678;2023-08-01T13:46:27;1.37;;;1.33;;
5412;SDS011;2729;50.056;8.678;2023-08-01T13:48:53;1.37;;;1.37;;
5412;SDS011;2729;50.056;8.678;2023-08-01T13:51:18;2.53;;;1.77;;
5412;SDS011;2729;50.056;8.678;2023-08-01T13:53:44;1.57;;;1.47;;
5412;SDS011;2729;50.056;8.678;2023-08-01T13:56:10;3.80;;;1.80;;
5412;SDS011;2729;50.056;8.678;2023-08-01T13:58:37;6.00;;;1.80;;
5412;SDS011;2729;50.056;8.678;2023-08-01T14:07:28;1.87;;;1.30;;
5412;SDS011;2729;50.056;8.678;2023-08-01T14:09:54;2.50;;;1.70;;
5412;SDS011;2729;50.056;8.678;2023-08-01T14:12:20;2.60;;;1.90;;
5412;SDS011;2729;50.056;8.678;2023-08-01T14:14:47;1.90;;;1.70;;
5412;SDS011;2729;50.056;8.678;2023-08-01T14:17:13;6.63;;;1.83;;
5412;SDS011;2729;50.056;8.678;2023-08-01T14:19:38;9.27;;;2.10;;
5412;SDS011;2729;50.056;8.678;2023-08-01T14:22:04;5.17;;;1.93;;
5412;SDS011;2729;50.056;8.678;2023-08-01T14:24:29;3.00;;;1.83;;
5412;SDS011;2729;50.056;8.678;2023-08-01T14:26:55;3.77;;;1.83;;
5412;SDS011;2729;50.056;8.678;2023-08-01T14:29:21;1.50;;;1.40;;
5412;SDS011;2729;50.056;8.678;2023-08-01T14:31:48;4.10;;;1.40;;
5412;SDS011;2729;50.056;8.678;2023-08-01T14:34:15;1.40;;;1.30;;
5412;SDS011;2729;50.056;8.678;2023-08-01T14:36:40;1.60;;;1.50;;
5412;SDS011;2729;50.056;8.678;2023-08-01T14:39:06;2.53;;;1.50;;
5412;SDS011;2729;50.056;8.678;2023-08-01T14:41:32;1.13;;;1.00;;
5412;SDS011;2729;50.056;8.678;2023-08-01T14:43:59;1.43;;;1.33;;
5412;SDS011;2729;50.056;8.678;2023-08-01T14:46:25;5.03;;;1.70;;
5412;SDS011;2729;50.056;8.678;2023-08-01T14:48:52;2.53;;;1.10;;
5412;SDS011;2729;50.056;8.678;2023-08-01T14:51:17;1.23;;;1.17;;
5412;SDS011;2729;50.056;8.678;2023-08-01T14:53:43;1.60;;;1.43;;
5412;SDS011;2729;50.056;8.678;2023-08-01T14:56:08;1.63;;;1.53;;
5412;SDS011;2729;50.056;8.678;2023-08-01T14:58:34;1.27;;;1.07;;
5412;SDS011;2729;50.056;8.678;2023-08-01T15:01:14;1.30;;;1.20;;
5412;SDS011;2729;50.056;8.678;2023-08-01T15:03:39;1.30;;;1.20;;
5412;SDS011;2729;50.056;8.678;2023-08-01T15:06:06;5.80;;;1.97;;
5412;SDS011;2729;50.056;8.678;2023-08-01T15:08:32;1.63;;;1.20;;
5412;SDS011;2729;50.056;8.678;2023-08-01T15:11:01;3.03;;;1.10;;
5412;SDS011;2729;50.056;8.678;2023-08-01T15:13:27;4.17;;;1.47;;
5412;SDS011;2729;50.056;8.678;2023-08-01T15:15:52;2.33;;;1.40;;
5412;SDS011;2729;50.056;8.678;2023-08-01T15:18:18;2.20;;;1.50;;
5412;SDS011;2729;50.056;8.678;2023-08-01T15:20:43;2.20;;;1.37;;
5412;SDS011;2729;50.056;8.678;2023-08-01T15:23:10;1.90;;;0.97;;
5412;SDS011;2729;50.056;8.678;2023-08-01T15:25:37;5.13;;;1.30;;
5412;SDS011;2729;50.056;8.678;2023-08-01T15:28:02;2.60;;;1.23;;
5412;SDS011;2729;50.056;8.678;2023-08-01T15:30:28;1.20;;;1.20;;